sensor_id;sensor_type;location;lat;lon;timestamp;temperature;humidity
43043;DHT22;28667;50.758;6.096;2023-03-21T00:02:02;9.40;99.90
43043;DHT22;28667;50.758;6.096;2023-03-21T00:04:28;9.40;99.90
43043;DHT22;28667;50.758;6.096;2023-03-21T00:06:54;9.40;99.90
43043;DHT22;28667;50.758;6.096;2023-03-21T00:09:19;9.40;99.90
43043;DHT22;28667;50.758;6.096;2023-03-21T00:11:45;9.40;99.90
43043;DHT22;28667;50.758;6.096;2023-03-21T00:14:12;9.50;99.90
43043;DHT22;28667;50.758;6.096;2023-03-21T00:16:45;9.50;99.90
43043;DHT22;28667;50.758;6.096;2023-03-21T00:19:16;9.50;99.90
43043;DHT22;28667;50.758;6.096;2023-03-21T00:21:42;9.40;99.90
43043;DHT22;28667;50.758;6.096;2023-03-21T00:24:08;9.50;99.90
43043;DHT22;28667;50.758;6.096;2023-03-21T00:26:34;9.40;99.90
43043;DHT22;28667;50.758;6.096;2023-03-21T00:29:00;9.40;99.90
43043;DHT22;28667;50.758;6.096;2023-03-21T00:31:26;9.40;99.90
43043;DHT22;28667;50.758;6.096;2023-03-21T00:33:51;9.40;99.90
43043;DHT22;28667;50.758;6.096;2023-03-21T00:36:17;9.40;99.90
43043;DHT22;28667;50.758;6.096;2023-03-21T00:38:43;9.40;99.90
43043;DHT22;28667;50.758;6.096;2023-03-21T00:41:10;9.50;99.90
43043;DHT22;28667;50.758;6.096;2023-03-21T00:43:37;9.50;99.90
43043;DHT22;28667;50.758;6.096;2023-03-21T00:46:03;9.50;99.90
43043;DHT22;28667;50.758;6.096;2023-03-21T00:48:29;9.50;99.90
43043;DHT22;28667;50.758;6.096;2023-03-21T00:50:56;9.50;99.90
43043;DHT22;28667;50.758;6.096;2023-03-21T00:53:24;9.50;99.90
43043;DHT22;28667;50.758;6.096;2023-03-21T00:55:50;9.50;99.90
43043;DHT22;28667;50.758;6.096;2023-03-21T00:58:16;9.50;99.90
43043;DHT22;28667;50.758;6.096;2023-03-21T01:00:43;9.50;99.90
43043;DHT22;28667;50.758;6.096;2023-03-21T01:03:15;9.50;99.90
43043;DHT22;28667;50.758;6.096;2023-03-21T01:05:46;9.50;99.90
43043;DHT22;28667;50.758;6.096;2023-03-21T01:08:37;9.40;99.90
43043;DHT22;28667;50.758;6.096;2023-03-21T01:11:06;9.40;99.90
43043;DHT22;28667;50.758;6.096;2023-03-21T01:13:33;9.40;99.90
43043;DHT22;28667;50.758;6.096;2023-03-21T01:15:59;9.30;99.90
43043;DHT22;28667;50.758;6.096;2023-03-21T01:18:27;9.30;99.90
43043;DHT22;28667;50.758;6.096;2023-03-21T01:20:55;9.30;99.90
43043;DHT22;28667;50.758;6.096;2023-03-21T01:23:22;9.20;99.90
43043;DHT22;28667;50.758;6.096;2023-03-21T01:25:50;9.20;99.90
43043;DHT22;28667;50.758;6.096;2023-03-21T01:28:17;9.20;99.90
43043;DHT22;28667;50.758;6.096;2023-03-21T01:30:47;9.10;99.90
43043;DHT22;28667;50.758;6.096;2023-03-21T01:33:14;9.10;99.90
43043;DHT22;28667;50.758;6.096;2023-03-21T01:35:41;9.10;99.90
43043;DHT22;28667;50.758;6.096;2023-03-21T01:38:06;9.00;99.90
43043;DHT22;28667;50.758;6.096;2023-03-21T01:40:35;9.00;99.90
43043;DHT22;28667;50.758;6.096;2023-03-21T01:43:28;8.90;99.90
43043;DHT22;28667;50.758;6.096;2023-03-21T01:49:26;8.80;99.90
43043;DHT22;28667;50.758;6.096;2023-03-21T01:52:08;8.80;99.90
43043;DHT22;28667;50.758;6.096;2023-03-21T01:54:37;8.70;99.90
43043;DHT22;28667;50.758;6.096;2023-03-21T01:57:08;8.70;99.90
43043;DHT22;28667;50.758;6.096;2023-03-21T01:59:43;8.80;99.90
43043;DHT22;28667;50.758;6.096;2023-03-21T02:02:28;8.70;99.90
43043;DHT22;28667;50.758;6.096;2023-03-21T02:05:09;8.70;99.90
43043;DHT22;28667;50.758;6.096;2023-03-21T02:07:35;8.70;99.90
43043;DHT22;28667;50.758;6.096;2023-03-21T02:10:09;8.70;99.90
43043;DHT22;28667;50.758;6.096;2023-03-21T02:12:37;8.80;99.90
43043;DHT22;28667;50.758;6.096;2023-03-21T02:15:05;8.80;99.90
43043;DHT22;28667;50.758;6.096;2023-03-21T02:26:26;8.80;99.90
43043;DHT22;28667;50.758;6.096;2023-03-21T02:29:17;8.80;99.90
43043;DHT22;28667;50.758;6.096;2023-03-21T02:31:59;8.80;99.90
43043;DHT22;28667;50.758;6.096;2023-03-21T02:37:34;8.80;99.90
43043;DHT22;28667;50.758;6.096;2023-03-21T02:40:24;8.80;99.90
43043;DHT22;28667;50.758;6.096;2023-03-21T02:45:39;8.90;99.90
43043;DHT22;28667;50.758;6.096;2023-03-21T02:48:10;8.90;99.90
43043;DHT22;28667;50.758;6.096;2023-03-21T02:50:48;8.90;99.90
43043;DHT22;28667;50.758;6.096;2023-03-21T02:53:19;8.90;99.90
43043;DHT22;28667;50.758;6.096;2023-03-21T02:55:47;8.90;99.90
43043;DHT22;28667;50.758;6.096;2023-03-21T02:58:17;8.90;99.90
43043;DHT22;28667;50.758;6.096;2023-03-21T03:00:49;9.00;99.90
43043;DHT22;28667;50.758;6.096;2023-03-21T03:03:40;9.00;99.90
43043;DHT22;28667;50.758;6.096;2023-03-21T03:06:24;9.00;99.90
43043;DHT22;28667;50.758;6.096;2023-03-21T03:14:20;9.10;99.90
43043;DHT22;28667;50.758;6.096;2023-03-21T03:19:34;9.10;99.90
43043;DHT22;28667;50.758;6.096;2023-03-21T03:22:24;9.10;99.90
43043;DHT22;28667;50.758;6.096;2023-03-21T03:25:05;9.10;99.90
43043;DHT22;28667;50.758;6.096;2023-03-21T03:27:36;9.10;99.90
43043;DHT22;28667;50.758;6.096;2023-03-21T03:30:05;9.10;99.90
43043;DHT22;28667;50.758;6.096;2023-03-21T03:32:45;9.10;99.90
43043;DHT22;28667;50.758;6.096;2023-03-21T03:35:14;9.20;99.90
43043;DHT22;28667;50.758;6.096;2023-03-21T03:37:42;9.20;99.90
43043;DHT22;28667;50.758;6.096;2023-03-21T03:40:45;9.20;99.90
43043;DHT22;28667;50.758;6.096;2023-03-21T03:43:36;9.30;99.90
43043;DHT22;28667;50.758;6.096;2023-03-21T03:46:18;9.20;99.90
43043;DHT22;28667;50.758;6.096;2023-03-21T03:48:53;9.20;99.90
43043;DHT22;28667;50.758;6.096;2023-03-21T03:51:22;9.30;99.90
43043;DHT22;28667;50.758;6.096;2023-03-21T03:54:15;9.30;99.90
43043;DHT22;28667;50.758;6.096;2023-03-21T03:56:44;9.30;99.90
43043;DHT22;28667;50.758;6.096;2023-03-21T03:59:11;9.30;99.90
43043;DHT22;28667;50.758;6.096;2023-03-21T04:02:02;9.30;99.90
43043;DHT22;28667;50.758;6.096;2023-03-21T04:04:28;9.30;99.90
43043;DHT22;28667;50.758;6.096;2023-03-21T04:06:57;9.30;99.90
43043;DHT22;28667;50.758;6.096;2023-03-21T04:09:24;9.30;99.90
43043;DHT22;28667;50.758;6.096;2023-03-21T04:11:51;9.30;99.90
43043;DHT22;28667;50.758;6.096;2023-03-21T04:14:18;9.40;99.90
43043;DHT22;28667;50.758;6.096;2023-03-21T04:16:44;9.30;99.90
43043;DHT22;28667;50.758;6.096;2023-03-21T04:19:11;9.40;99.90
43043;DHT22;28667;50.758;6.096;2023-03-21T04:21:37;9.40;99.90
43043;DHT22;28667;50.758;6.096;2023-03-21T04:24:04;9.40;99.90
43043;DHT22;28667;50.758;6.096;2023-03-21T04:26:33;9.40;99.90
43043;DHT22;28667;50.758;6.096;2023-03-21T04:29:19;9.40;99.90
43043;DHT22;28667;50.758;6.096;2023-03-21T04:32:05;9.40;99.90
43043;DHT22;28667;50.758;6.096;2023-03-21T04:34:42;9.40;99.90
43043;DHT22;28667;50.758;6.096;2023-03-21T04:37:16;9.40;99.90
43043;DHT22;28667;50.758;6.096;2023-03-21T04:39:44;9.40;99.90
43043;DHT22;28667;50.758;6.096;2023-03-21T04:42:13;9.40;99.90
43043;DHT22;28667;50.758;6.096;2023-03-21T04:44:40;9.40;99.90
43043;DHT22;28667;50.758;6.096;2023-03-21T04:47:07;9.40;99.90
43043;DHT22;28667;50.758;6.096;2023-03-21T04:49:33;9.40;99.90
43043;DHT22;28667;50.758;6.096;2023-03-21T04:51:59;9.40;99.90
43043;DHT22;28667;50.758;6.096;2023-03-21T04:54:26;9.40;99.90
43043;DHT22;28667;50.758;6.096;2023-03-21T04:56:51;9.40;99.90
43043;DHT22;28667;50.758;6.096;2023-03-21T04:59:18;9.40;99.90
43043;DHT22;28667;50.758;6.096;2023-03-21T05:01:44;9.40;99.90
43043;DHT22;28667;50.758;6.096;2023-03-21T05:04:12;9.40;99.90
43043;DHT22;28667;50.758;6.096;2023-03-21T05:06:39;9.40;99.90
43043;DHT22;28667;50.758;6.096;2023-03-21T05:09:07;9.40;99.90
43043;DHT22;28667;50.758;6.096;2023-03-21T05:11:36;9.40;99.90
43043;DHT22;28667;50.758;6.096;2023-03-21T05:14:05;9.40;99.90
43043;DHT22;28667;50.758;6.096;2023-03-21T05:16:32;9.40;99.90
43043;DHT22;28667;50.758;6.096;2023-03-21T05:19:00;9.50;99.90
43043;DHT22;28667;50.758;6.096;2023-03-21T05:21:32;9.40;99.90
43043;DHT22;28667;50.758;6.096;2023-03-21T05:24:13;9.50;99.90
43043;DHT22;28667;50.758;6.096;2023-03-21T05:26:40;9.50;99.90
43043;DHT22;28667;50.758;6.096;2023-03-21T05:29:12;9.50;99.90
43043;DHT22;28667;50.758;6.096;2023-03-21T05:31:39;9.50;99.90
43043;DHT22;28667;50.758;6.096;2023-03-21T05:34:09;9.50;99.90
43043;DHT22;28667;50.758;6.096;2023-03-21T05:36:36;9.60;99.90
43043;DHT22;28667;50.758;6.096;2023-03-21T05:39:05;9.50;99.90
43043;DHT22;28667;50.758;6.096;2023-03-21T05:41:34;9.50;99.90
43043;DHT22;28667;50.758;6.096;2023-03-21T05:44:03;9.40;99.90
43043;DHT22;28667;50.758;6.096;2023-03-21T05:46:28;9.30;99.90
43043;DHT22;28667;50.758;6.096;2023-03-21T05:48:54;9.30;99.90
43043;DHT22;28667;50.758;6.096;2023-03-21T05:51:21;9.30;99.90
43043;DHT22;28667;50.758;6.096;2023-03-21T05:53:47;9.30;99.90
43043;DHT22;28667;50.758;6.096;2023-03-21T05:56:15;9.20;99.90
43043;DHT22;28667;50.758;6.096;2023-03-21T05:58:54;9.20;99.90
43043;DHT22;28667;50.758;6.096;2023-03-21T06:01:22;9.10;99.90
43043;DHT22;28667;50.758;6.096;2023-03-21T06:04:04;9.10;99.90
43043;DHT22;28667;50.758;6.096;2023-03-21T06:06:30;9.00;99.90
43043;DHT22;28667;50.758;6.096;2023-03-21T06:08:59;8.90;99.90
43043;DHT22;28667;50.758;6.096;2023-03-21T06:11:29;8.90;99.90
43043;DHT22;28667;50.758;6.096;2023-03-21T06:14:14;8.90;99.90
43043;DHT22;28667;50.758;6.096;2023-03-21T06:16:41;8.80;99.90
43043;DHT22;28667;50.758;6.096;2023-03-21T06:19:07;8.80;99.90
43043;DHT22;28667;50.758;6.096;2023-03-21T06:21:59;8.80;99.90
43043;DHT22;28667;50.758;6.096;2023-03-21T06:24:25;8.80;99.90
43043;DHT22;28667;50.758;6.096;2023-03-21T06:26:52;8.80;99.90
43043;DHT22;28667;50.758;6.096;2023-03-21T06:29:18;8.90;99.90
43043;DHT22;28667;50.758;6.096;2023-03-21T06:31:47;8.80;99.90
43043;DHT22;28667;50.758;6.096;2023-03-21T06:34:14;8.90;99.90
43043;DHT22;28667;50.758;6.096;2023-03-21T06:36:40;8.90;99.90
43043;DHT22;28667;50.758;6.096;2023-03-21T06:39:09;8.80;99.90
43043;DHT22;28667;50.758;6.096;2023-03-21T06:41:38;8.80;99.90
43043;DHT22;28667;50.758;6.096;2023-03-21T06:44:04;8.90;99.90
43043;DHT22;28667;50.758;6.096;2023-03-21T06:46:36;8.90;99.90
43043;DHT22;28667;50.758;6.096;2023-03-21T06:49:02;8.90;99.90
43043;DHT22;28667;50.758;6.096;2023-03-21T06:51:29;9.00;99.90
43043;DHT22;28667;50.758;6.096;2023-03-21T06:54:08;9.00;99.90
43043;DHT22;28667;50.758;6.096;2023-03-21T06:56:39;9.00;99.90
43043;DHT22;28667;50.758;6.096;2023-03-21T06:59:09;9.00;99.90
43043;DHT22;28667;50.758;6.096;2023-03-21T07:01:50;9.00;99.90
43043;DHT22;28667;50.758;6.096;2023-03-21T07:04:17;9.10;99.90
43043;DHT22;28667;50.758;6.096;2023-03-21T07:06:43;9.10;99.90
43043;DHT22;28667;50.758;6.096;2023-03-21T07:09:09;9.10;99.90
43043;DHT22;28667;50.758;6.096;2023-03-21T07:11:37;9.20;99.90
43043;DHT22;28667;50.758;6.096;2023-03-21T07:14:04;9.20;99.90
43043;DHT22;28667;50.758;6.096;2023-03-21T07:16:31;9.30;99.90
43043;DHT22;28667;50.758;6.096;2023-03-21T07:18:57;9.30;99.90
43043;DHT22;28667;50.758;6.096;2023-03-21T07:21:22;9.40;99.90
43043;DHT22;28667;50.758;6.096;2023-03-21T07:23:48;9.50;99.90
43043;DHT22;28667;50.758;6.096;2023-03-21T07:26:15;9.50;99.90
43043;DHT22;28667;50.758;6.096;2023-03-21T07:28:43;9.50;99.90
43043;DHT22;28667;50.758;6.096;2023-03-21T07:31:14;9.60;99.90
43043;DHT22;28667;50.758;6.096;2023-03-21T07:33:40;9.60;99.90
43043;DHT22;28667;50.758;6.096;2023-03-21T07:36:14;9.70;99.90
43043;DHT22;28667;50.758;6.096;2023-03-21T07:38:42;9.70;99.90
43043;DHT22;28667;50.758;6.096;2023-03-21T07:41:09;9.70;99.90
43043;DHT22;28667;50.758;6.096;2023-03-21T07:43:35;9.80;99.90
43043;DHT22;28667;50.758;6.096;2023-03-21T07:46:01;9.80;99.90
43043;DHT22;28667;50.758;6.096;2023-03-21T07:48:27;9.80;99.90
43043;DHT22;28667;50.758;6.096;2023-03-21T07:50:54;9.80;99.90
43043;DHT22;28667;50.758;6.096;2023-03-21T07:53:20;9.80;99.90
43043;DHT22;28667;50.758;6.096;2023-03-21T07:55:53;9.90;99.90
43043;DHT22;28667;50.758;6.096;2023-03-21T07:58:22;9.90;99.90
43043;DHT22;28667;50.758;6.096;2023-03-21T08:00:48;10.00;99.90
43043;DHT22;28667;50.758;6.096;2023-03-21T08:03:13;10.10;99.90
43043;DHT22;28667;50.758;6.096;2023-03-21T08:05:39;10.10;99.90
43043;DHT22;28667;50.758;6.096;2023-03-21T08:08:06;10.20;99.90
43043;DHT22;28667;50.758;6.096;2023-03-21T08:10:33;10.20;99.90
43043;DHT22;28667;50.758;6.096;2023-03-21T08:12:58;10.30;99.90
43043;DHT22;28667;50.758;6.096;2023-03-21T08:15:24;10.50;99.90
43043;DHT22;28667;50.758;6.096;2023-03-21T08:17:50;10.60;99.90
43043;DHT22;28667;50.758;6.096;2023-03-21T08:20:19;10.70;99.90
43043;DHT22;28667;50.758;6.096;2023-03-21T08:22:47;10.80;99.90
43043;DHT22;28667;50.758;6.096;2023-03-21T08:25:14;10.90;99.90
43043;DHT22;28667;50.758;6.096;2023-03-21T08:27:43;11.00;99.90
43043;DHT22;28667;50.758;6.096;2023-03-21T08:30:12;11.00;99.90
43043;DHT22;28667;50.758;6.096;2023-03-21T08:32:39;11.10;99.90
43043;DHT22;28667;50.758;6.096;2023-03-21T08:35:10;11.10;99.90
43043;DHT22;28667;50.758;6.096;2023-03-21T08:37:39;11.20;99.90
43043;DHT22;28667;50.758;6.096;2023-03-21T08:40:11;11.30;99.90
43043;DHT22;28667;50.758;6.096;2023-03-21T08:42:38;11.30;99.90
43043;DHT22;28667;50.758;6.096;2023-03-21T08:45:05;11.30;99.90
43043;DHT22;28667;50.758;6.096;2023-03-21T08:47:32;11.40;99.90
43043;DHT22;28667;50.758;6.096;2023-03-21T08:49:57;11.30;99.90
43043;DHT22;28667;50.758;6.096;2023-03-21T08:52:24;11.30;99.90
43043;DHT22;28667;50.758;6.096;2023-03-21T08:54:52;11.40;99.90
43043;DHT22;28667;50.758;6.096;2023-03-21T08:57:17;11.30;99.90
43043;DHT22;28667;50.758;6.096;2023-03-21T08:59:43;11.30;99.90
43043;DHT22;28667;50.758;6.096;2023-03-21T09:02:12;11.30;99.90
43043;DHT22;28667;50.758;6.096;2023-03-21T09:04:38;11.30;99.90
43043;DHT22;28667;50.758;6.096;2023-03-21T09:07:05;11.30;99.90
43043;DHT22;28667;50.758;6.096;2023-03-21T09:09:30;11.40;99.90
43043;DHT22;28667;50.758;6.096;2023-03-21T09:11:56;11.40;99.90
43043;DHT22;28667;50.758;6.096;2023-03-21T09:14:22;11.40;99.90
43043;DHT22;28667;50.758;6.096;2023-03-21T09:16:48;11.50;99.90
43043;DHT22;28667;50.758;6.096;2023-03-21T09:19:14;11.50;99.90
43043;DHT22;28667;50.758;6.096;2023-03-21T09:21:40;11.60;99.90
43043;DHT22;28667;50.758;6.096;2023-03-21T09:24:06;11.70;99.90
43043;DHT22;28667;50.758;6.096;2023-03-21T09:26:33;11.70;99.90
43043;DHT22;28667;50.758;6.096;2023-03-21T09:28:59;11.80;99.90
43043;DHT22;28667;50.758;6.096;2023-03-21T09:31:26;11.90;99.90
43043;DHT22;28667;50.758;6.096;2023-03-21T09:33:53;12.10;99.90
43043;DHT22;28667;50.758;6.096;2023-03-21T09:36:21;12.20;99.90
43043;DHT22;28667;50.758;6.096;2023-03-21T09:38:49;12.30;99.90
43043;DHT22;28667;50.758;6.096;2023-03-21T09:46:35;12.60;99.90
43043;DHT22;28667;50.758;6.096;2023-03-21T09:49:06;12.70;99.90
43043;DHT22;28667;50.758;6.096;2023-03-21T09:51:40;12.80;99.90
43043;DHT22;28667;50.758;6.096;2023-03-21T09:56:44;12.90;99.90
43043;DHT22;28667;50.758;6.096;2023-03-21T09:59:27;12.80;99.90
43043;DHT22;28667;50.758;6.096;2023-03-21T10:01:53;12.80;99.90
43043;DHT22;28667;50.758;6.096;2023-03-21T10:04:22;12.80;99.90
43043;DHT22;28667;50.758;6.096;2023-03-21T10:07:00;12.90;99.90
43043;DHT22;28667;50.758;6.096;2023-03-21T10:09:27;13.00;99.90
43043;DHT22;28667;50.758;6.096;2023-03-21T10:11:59;13.10;99.90
43043;DHT22;28667;50.758;6.096;2023-03-21T10:14:43;13.20;99.90
43043;DHT22;28667;50.758;6.096;2023-03-21T10:22:44;13.20;99.90
43043;DHT22;28667;50.758;6.096;2023-03-21T10:25:27;13.20;99.90
43043;DHT22;28667;50.758;6.096;2023-03-21T10:27:54;13.00;99.90
43043;DHT22;28667;50.758;6.096;2023-03-21T10:30:34;13.00;99.90
43043;DHT22;28667;50.758;6.096;2023-03-21T10:33:03;12.90;99.90
43043;DHT22;28667;50.758;6.096;2023-03-21T10:35:34;12.90;99.90
43043;DHT22;28667;50.758;6.096;2023-03-21T10:38:02;13.00;99.90
43043;DHT22;28667;50.758;6.096;2023-03-21T10:40:28;12.80;99.90
43043;DHT22;28667;50.758;6.096;2023-03-21T10:42:56;12.80;99.90
43043;DHT22;28667;50.758;6.096;2023-03-21T10:45:22;12.80;99.90
43043;DHT22;28667;50.758;6.096;2023-03-21T10:47:49;12.80;99.90
43043;DHT22;28667;50.758;6.096;2023-03-21T10:50:19;12.80;99.90
43043;DHT22;28667;50.758;6.096;2023-03-21T10:52:52;12.70;99.90
43043;DHT22;28667;50.758;6.096;2023-03-21T10:55:27;12.60;99.90
43043;DHT22;28667;50.758;6.096;2023-03-21T10:58:01;12.50;99.90
43043;DHT22;28667;50.758;6.096;2023-03-21T11:00:34;12.40;99.90
43043;DHT22;28667;50.758;6.096;2023-03-21T11:03:00;12.30;99.90
43043;DHT22;28667;50.758;6.096;2023-03-21T11:05:39;12.20;99.90
43043;DHT22;28667;50.758;6.096;2023-03-21T11:08:11;12.20;99.90
43043;DHT22;28667;50.758;6.096;2023-03-21T11:11:01;12.20;99.90
43043;DHT22;28667;50.758;6.096;2023-03-21T11:13:41;12.10;99.90
43043;DHT22;28667;50.758;6.096;2023-03-21T11:16:17;12.10;99.90
43043;DHT22;28667;50.758;6.096;2023-03-21T11:18:49;12.20;99.90
43043;DHT22;28667;50.758;6.096;2023-03-21T11:21:15;12.20;99.90
43043;DHT22;28667;50.758;6.096;2023-03-21T11:23:44;12.30;99.90
43043;DHT22;28667;50.758;6.096;2023-03-21T11:26:21;12.40;99.90
43043;DHT22;28667;50.758;6.096;2023-03-21T11:28:51;12.50;99.90
43043;DHT22;28667;50.758;6.096;2023-03-21T11:31:17;12.60;99.90
43043;DHT22;28667;50.758;6.096;2023-03-21T11:34:05;12.60;99.90
43043;DHT22;28667;50.758;6.096;2023-03-21T11:36:33;12.70;99.90
43043;DHT22;28667;50.758;6.096;2023-03-21T11:39:23;12.70;99.90
43043;DHT22;28667;50.758;6.096;2023-03-21T11:41:52;12.70;99.90
43043;DHT22;28667;50.758;6.096;2023-03-21T11:46:55;12.90;99.90
43043;DHT22;28667;50.758;6.096;2023-03-21T11:49:22;12.90;99.90
43043;DHT22;28667;50.758;6.096;2023-03-21T11:56:55;13.10;99.90
43043;DHT22;28667;50.758;6.096;2023-03-21T12:00:02;13.20;99.90
43043;DHT22;28667;50.758;6.096;2023-03-21T12:05:42;13.30;99.90
43043;DHT22;28667;50.758;6.096;2023-03-21T12:20:02;13.70;99.90
43043;DHT22;28667;50.758;6.096;2023-03-21T12:30:50;14.00;99.90
43043;DHT22;28667;50.758;6.096;2023-03-21T12:41:43;14.20;99.90
43043;DHT22;28667;50.758;6.096;2023-03-21T12:44:14;14.40;99.90
43043;DHT22;28667;50.758;6.096;2023-03-21T12:46:57;14.40;99.90
43043;DHT22;28667;50.758;6.096;2023-03-21T12:49:25;14.40;99.90
43043;DHT22;28667;50.758;6.096;2023-03-21T12:52:13;14.50;99.90
43043;DHT22;28667;50.758;6.096;2023-03-21T12:54:49;14.50;99.90
43043;DHT22;28667;50.758;6.096;2023-03-21T12:58:03;14.50;99.90
43043;DHT22;28667;50.758;6.096;2023-03-21T13:00:13;14.50;99.90
43043;DHT22;28667;50.758;6.096;2023-03-21T13:02:43;14.50;99.90
43043;DHT22;28667;50.758;6.096;2023-03-21T13:05:39;14.60;99.90
43043;DHT22;28667;50.758;6.096;2023-03-21T13:08:20;14.70;99.90
43043;DHT22;28667;50.758;6.096;2023-03-21T13:10:48;14.70;99.90
43043;DHT22;28667;50.758;6.096;2023-03-21T13:18:48;15.00;99.90
43043;DHT22;28667;50.758;6.096;2023-03-21T13:24:04;15.10;99.90
43043;DHT22;28667;50.758;6.096;2023-03-21T13:26:39;15.10;99.90
43043;DHT22;28667;50.758;6.096;2023-03-21T13:29:13;15.10;99.90
43043;DHT22;28667;50.758;6.096;2023-03-21T13:31:44;15.20;99.90
43043;DHT22;28667;50.758;6.096;2023-03-21T13:34:12;15.20;99.90
43043;DHT22;28667;50.758;6.096;2023-03-21T13:36:39;15.20;99.90
43043;DHT22;28667;50.758;6.096;2023-03-21T13:39:17;15.20;99.90
43043;DHT22;28667;50.758;6.096;2023-03-21T13:41:45;15.20;99.90
43043;DHT22;28667;50.758;6.096;2023-03-21T13:44:42;15.30;99.90
43043;DHT22;28667;50.758;6.096;2023-03-21T13:47:53;15.40;99.90
43043;DHT22;28667;50.758;6.096;2023-03-21T13:55:29;15.40;99.90
43043;DHT22;28667;50.758;6.096;2023-03-21T13:57:55;15.40;99.80
43043;DHT22;28667;50.758;6.096;2023-03-21T14:00:26;15.50;99.70
43043;DHT22;28667;50.758;6.096;2023-03-21T14:03:00;15.40;99.50
43043;DHT22;28667;50.758;6.096;2023-03-21T14:05:30;15.40;99.70
43043;DHT22;28667;50.758;6.096;2023-03-21T14:08:02;15.50;99.70
43043;DHT22;28667;50.758;6.096;2023-03-21T14:10:34;15.60;99.60
43043;DHT22;28667;50.758;6.096;2023-03-21T14:13:03;15.60;98.80
43043;DHT22;28667;50.758;6.096;2023-03-21T14:15:42;15.60;98.00
43043;DHT22;28667;50.758;6.096;2023-03-21T14:18:14;15.60;97.20
43043;DHT22;28667;50.758;6.096;2023-03-21T14:20:40;15.50;97.60
43043;DHT22;28667;50.758;6.096;2023-03-21T14:23:12;15.50;97.40
43043;DHT22;28667;50.758;6.096;2023-03-21T14:25:39;15.50;97.80
43043;DHT22;28667;50.758;6.096;2023-03-21T14:28:16;15.60;97.20
43043;DHT22;28667;50.758;6.096;2023-03-21T14:30:43;15.60;97.70
43043;DHT22;28667;50.758;6.096;2023-03-21T14:35:45;15.70;96.50
43043;DHT22;28667;50.758;6.096;2023-03-21T14:38:33;15.70;96.20
43043;DHT22;28667;50.758;6.096;2023-03-21T14:40:59;15.80;95.20
43043;DHT22;28667;50.758;6.096;2023-03-21T14:43:25;15.90;95.10
43043;DHT22;28667;50.758;6.096;2023-03-21T14:45:54;15.90;94.70
43043;DHT22;28667;50.758;6.096;2023-03-21T14:48:33;16.00;94.30
43043;DHT22;28667;50.758;6.096;2023-03-21T14:51:02;15.90;94.90
43043;DHT22;28667;50.758;6.096;2023-03-21T14:53:36;15.90;94.40
43043;DHT22;28667;50.758;6.096;2023-03-21T14:58:32;15.60;94.90
43043;DHT22;28667;50.758;6.096;2023-03-21T15:01:01;15.50;95.00
43043;DHT22;28667;50.758;6.096;2023-03-21T15:03:29;15.40;94.90
43043;DHT22;28667;50.758;6.096;2023-03-21T15:05:56;15.50;94.60
43043;DHT22;28667;50.758;6.096;2023-03-21T15:08:24;15.50;94.70
43043;DHT22;28667;50.758;6.096;2023-03-21T15:11:01;15.50;94.70
43043;DHT22;28667;50.758;6.096;2023-03-21T15:13:33;15.50;94.50
43043;DHT22;28667;50.758;6.096;2023-03-21T15:15:59;15.40;94.80
43043;DHT22;28667;50.758;6.096;2023-03-21T15:18:30;15.50;94.30
43043;DHT22;28667;50.758;6.096;2023-03-21T15:21:01;15.40;94.10
43043;DHT22;28667;50.758;6.096;2023-03-21T15:23:43;15.40;94.40
43043;DHT22;28667;50.758;6.096;2023-03-21T15:26:19;15.40;94.40
43043;DHT22;28667;50.758;6.096;2023-03-21T15:28:48;15.30;95.00
43043;DHT22;28667;50.758;6.096;2023-03-21T15:31:19;15.30;94.90
43043;DHT22;28667;50.758;6.096;2023-03-21T15:33:53;15.30;95.20
43043;DHT22;28667;50.758;6.096;2023-03-21T15:36:32;15.30;95.80
43043;DHT22;28667;50.758;6.096;2023-03-21T15:39:04;15.30;95.70
43043;DHT22;28667;50.758;6.096;2023-03-21T15:41:31;15.30;95.60
43043;DHT22;28667;50.758;6.096;2023-03-21T15:46:40;15.40;95.40
43043;DHT22;28667;50.758;6.096;2023-03-21T15:51:56;15.40;95.10
43043;DHT22;28667;50.758;6.096;2023-03-21T15:54:58;15.40;94.90
43043;DHT22;28667;50.758;6.096;2023-03-21T15:57:29;15.40;94.60
43043;DHT22;28667;50.758;6.096;2023-03-21T16:02:57;15.20;94.90
43043;DHT22;28667;50.758;6.096;2023-03-21T16:05:32;15.10;95.10
43043;DHT22;28667;50.758;6.096;2023-03-21T16:08:21;15.10;95.10
43043;DHT22;28667;50.758;6.096;2023-03-21T16:10:50;14.90;95.50
43043;DHT22;28667;50.758;6.096;2023-03-21T16:13:16;14.90;95.80
43043;DHT22;28667;50.758;6.096;2023-03-21T16:15:42;14.90;95.60
43043;DHT22;28667;50.758;6.096;2023-03-21T16:18:13;14.80;95.80
43043;DHT22;28667;50.758;6.096;2023-03-21T16:20:42;14.90;95.50
43043;DHT22;28667;50.758;6.096;2023-03-21T16:23:10;14.80;95.80
43043;DHT22;28667;50.758;6.096;2023-03-21T16:25:36;14.80;95.90
43043;DHT22;28667;50.758;6.096;2023-03-21T16:28:04;14.70;96.10
43043;DHT22;28667;50.758;6.096;2023-03-21T16:30:34;14.60;96.50
43043;DHT22;28667;50.758;6.096;2023-03-21T16:32:59;14.60;96.80
43043;DHT22;28667;50.758;6.096;2023-03-21T16:35:25;14.50;97.10
43043;DHT22;28667;50.758;6.096;2023-03-21T16:37:52;14.50;97.10
43043;DHT22;28667;50.758;6.096;2023-03-21T16:40:28;14.40;96.90
43043;DHT22;28667;50.758;6.096;2023-03-21T16:42:54;14.40;97.10
43043;DHT22;28667;50.758;6.096;2023-03-21T16:45:20;14.30;97.20
43043;DHT22;28667;50.758;6.096;2023-03-21T16:47:45;14.30;97.30
43043;DHT22;28667;50.758;6.096;2023-03-21T16:50:35;14.30;97.30
43043;DHT22;28667;50.758;6.096;2023-03-21T16:53:01;14.30;97.60
43043;DHT22;28667;50.758;6.096;2023-03-21T16:55:28;14.30;97.80
43043;DHT22;28667;50.758;6.096;2023-03-21T16:57:54;14.20;97.80
43043;DHT22;28667;50.758;6.096;2023-03-21T17:00:24;14.20;97.80
43043;DHT22;28667;50.758;6.096;2023-03-21T17:02:53;14.10;98.00
43043;DHT22;28667;50.758;6.096;2023-03-21T17:05:21;14.10;98.40
43043;DHT22;28667;50.758;6.096;2023-03-21T17:07:50;14.00;98.30
43043;DHT22;28667;50.758;6.096;2023-03-21T17:10:23;14.00;98.40
43043;DHT22;28667;50.758;6.096;2023-03-21T17:12:49;13.90;98.40
43043;DHT22;28667;50.758;6.096;2023-03-21T17:15:15;13.90;98.70
43043;DHT22;28667;50.758;6.096;2023-03-21T17:17:41;13.80;98.80
43043;DHT22;28667;50.758;6.096;2023-03-21T17:20:23;13.80;98.90
43043;DHT22;28667;50.758;6.096;2023-03-21T17:22:50;13.70;99.40
43043;DHT22;28667;50.758;6.096;2023-03-21T17:25:16;13.70;99.40
43043;DHT22;28667;50.758;6.096;2023-03-21T17:27:43;13.70;99.80
43043;DHT22;28667;50.758;6.096;2023-03-21T17:32:41;13.70;99.90
43043;DHT22;28667;50.758;6.096;2023-03-21T17:35:07;13.60;99.90
43043;DHT22;28667;50.758;6.096;2023-03-21T17:37:33;13.50;99.90
43043;DHT22;28667;50.758;6.096;2023-03-21T17:39:58;13.50;99.90
43043;DHT22;28667;50.758;6.096;2023-03-21T17:42:24;13.40;99.90
43043;DHT22;28667;50.758;6.096;2023-03-21T17:44:50;13.40;99.90
43043;DHT22;28667;50.758;6.096;2023-03-21T17:47:16;13.30;99.90
43043;DHT22;28667;50.758;6.096;2023-03-21T17:49:42;13.20;99.90